logo
Search for airport 
image banner adimage banner adimage banner ad
image banner ad

LKBG - Brno - Bohunice Main

Located in Brno, Czech Republic

ICAO - , IATA -

Data provided by Airmate  

General information

Coordinates: N49°10'35" E16°34'20"
Elevation is 951 feet MSL.
 
View others Airports in South Moravian Region

Operational data

Special qualification required
Current time UTC:
Current local time:
Weather at : LKTB - Brno/Turany ( 9 km )
METAR: LKTB 281930Z 31004KT CAVOK 16/10 Q1018 NOSIG
View NOTAMs / SUP AIP / TFR affecting this airport [VIEW]
Communications frequencies: [VIEW]

Runways:

Airport contact information

Address: Brno Czech Republic

Satellite view of LKBG